createdAt,value
2022-08-08T00:00:55.240Z,2.35
2022-08-08T00:04:02.501Z,2.70
2022-08-08T00:07:17.173Z,2.65
2022-08-08T00:10:29.808Z,2.55
2022-08-08T00:14:17.662Z,2.50
2022-08-08T00:18:02.010Z,2.70
2022-08-08T00:21:07.753Z,2.65
2022-08-08T00:24:24.181Z,3.25
2022-08-08T00:27:35.778Z,2.92
2022-08-08T00:31:00.209Z,2.80
2022-08-08T00:34:24.057Z,2.42
2022-08-08T00:37:47.558Z,2.80
2022-08-08T00:41:14.797Z,2.45
2022-08-08T00:44:17.468Z,2.30
2022-08-08T00:48:04.902Z,2.13
2022-08-08T00:51:15.195Z,2.70
2022-08-08T00:54:51.150Z,2.53
2022-08-08T00:58:30.608Z,2.55
2022-08-08T01:01:40.303Z,2.20
2022-08-08T01:05:59.559Z,2.38
2022-08-08T01:09:36.470Z,2.15
2022-08-08T01:13:15.171Z,2.30
2022-08-08T01:16:29.048Z,2.28
2022-08-08T01:20:02.932Z,2.40
2022-08-08T01:24:06.616Z,2.92
2022-08-08T01:27:07.281Z,2.90
2022-08-08T01:30:53.607Z,1.98
2022-08-08T01:34:11.650Z,3.10
2022-08-08T01:37:57.060Z,2.60
2022-08-08T01:41:11.705Z,2.45
2022-08-08T01:44:44.242Z,1.98
2022-08-08T01:48:48.373Z,2.90
2022-08-08T01:53:28.810Z,2.75
2022-08-08T01:56:30.427Z,2.47
2022-08-08T02:00:02.297Z,2.55
2022-08-08T02:03:55.310Z,2.25
2022-08-08T02:07:13.698Z,2.25
2022-08-08T02:10:45.054Z,2.63
2022-08-08T02:14:05.763Z,2.97
2022-08-08T02:17:36.555Z,2.40
2022-08-08T02:21:08.472Z,2.97
2022-08-08T02:24:28.685Z,2.55
2022-08-08T02:27:42.615Z,3.28
2022-08-08T02:30:58.204Z,2.30
2022-08-08T02:34:33.007Z,2.72
2022-08-08T02:38:09.382Z,2.42
2022-08-08T02:42:03.804Z,2.95
2022-08-08T02:45:21.422Z,2.90
2022-08-08T02:48:27.437Z,3.08
2022-08-08T02:51:47.597Z,3.00
2022-08-08T02:55:36.421Z,2.83
2022-08-08T02:58:51.838Z,2.58
2022-08-08T03:02:30.250Z,2.22
2022-08-08T03:06:01.526Z,2.50
2022-08-08T03:09:12.549Z,3.15
2022-08-08T03:12:36.402Z,3.45
2022-08-08T03:16:35.782Z,3.63
2022-08-08T03:19:39.477Z,3.58
2022-08-08T03:22:56.784Z,2.95
2022-08-08T03:26:00.552Z,3.05
2022-08-08T03:29:17.057Z,3.00
2022-08-08T03:32:23.408Z,2.60
2022-08-08T03:35:37.015Z,2.85
2022-08-08T03:38:58.349Z,3.00
2022-08-08T03:42:27.471Z,2.85
2022-08-08T03:46:03.398Z,2.67
2022-08-08T03:49:15.259Z,2.70
2022-08-08T03:52:19.316Z,3.10
2022-08-08T03:55:56.373Z,2.97
2022-08-08T03:58:50.021Z,3.47
2022-08-08T04:02:13.260Z,3.10
2022-08-08T04:05:14.748Z,3.70
2022-08-08T04:08:32.795Z,2.78
2022-08-08T04:11:57.742Z,3.30
2022-08-08T04:15:02.321Z,2.85
2022-08-08T04:18:05.712Z,2.75
2022-08-08T04:28:03.423Z,3.13
2022-08-08T04:30:55.323Z,2.72
2022-08-08T04:33:59.479Z,2.80
2022-08-08T04:37:03.925Z,2.95
2022-08-08T04:40:10.588Z,2.90
2022-08-08T04:43:14.499Z,2.78
2022-08-08T04:46:16.767Z,2.95
2022-08-08T04:49:20.967Z,2.60
2022-08-08T04:52:33.915Z,3.05
2022-08-08T04:55:47.666Z,2.88
2022-08-08T04:58:58.056Z,2.55
2022-08-08T05:02:00.900Z,2.90
2022-08-08T05:05:03.347Z,2.83
2022-08-08T05:08:06.766Z,2.65
2022-08-08T05:11:22.659Z,3.13
2022-08-08T05:14:29.158Z,2.65
2022-08-08T05:17:53.689Z,2.95
2022-08-08T05:20:53.699Z,2.67
2022-08-08T05:23:59.166Z,2.75
2022-08-08T05:27:06.570Z,2.58
2022-08-08T05:30:09.025Z,2.47
2022-08-08T05:33:12.813Z,2.78
2022-08-08T05:36:25.357Z,2.40
2022-08-08T05:39:35.062Z,3.15
2022-08-08T05:42:49.120Z,2.88
2022-08-08T05:46:03.471Z,2.38
2022-08-08T05:49:11.144Z,2.75
2022-08-08T05:52:14.120Z,2.90
2022-08-08T05:55:16.970Z,2.30
2022-08-08T06:01:56.840Z,2.60
2022-08-08T06:04:56.162Z,2.40
2022-08-08T06:08:03.048Z,2.33
2022-08-08T06:11:13.435Z,2.35
2022-08-08T06:14:19.225Z,2.30
2022-08-08T06:17:32.144Z,2.50
2022-08-08T06:20:50.263Z,3.08
2022-08-08T06:24:02.095Z,2.58
2022-08-08T06:27:09.635Z,2.72
2022-08-08T06:30:20.193Z,4.00
2022-08-08T06:34:26.524Z,2.33
2022-08-08T06:37:10.718Z,2.67
2022-08-08T06:40:30.101Z,2.65
2022-08-08T06:43:37.900Z,2.60
2022-08-08T06:46:40.229Z,2.45
2022-08-08T06:49:55.703Z,2.85
2022-08-08T06:53:13.959Z,2.80
2022-08-08T06:56:23.039Z,2.45
2022-08-08T06:59:25.169Z,2.63
2022-08-08T07:02:32.849Z,2.30
2022-08-08T07:05:40.387Z,2.53
2022-08-08T07:08:48.095Z,2.53
2022-08-08T07:11:57.722Z,3.00
2022-08-08T07:15:06.014Z,3.33
2022-08-08T07:18:35.980Z,2.38
2022-08-08T07:21:50.070Z,2.20
2022-08-08T07:24:59.394Z,2.20
2022-08-08T07:28:13.226Z,2.28
2022-08-08T07:31:22.604Z,2.60
2022-08-08T07:34:32.056Z,2.20
2022-08-08T07:37:56.161Z,2.67
2022-08-08T07:40:59.113Z,2.45
2022-08-08T07:44:33.539Z,2.53
2022-08-08T07:50:43.529Z,2.45
2022-08-08T07:54:27.210Z,2.05
2022-08-08T07:57:42.078Z,1.92
2022-08-08T08:00:52.637Z,2.13
2022-08-08T08:04:02.493Z,2.67
2022-08-08T08:07:06.221Z,2.35
2022-08-08T08:10:12.502Z,2.13
2022-08-08T08:13:19.281Z,3.35
2022-08-08T08:16:34.672Z,2.50
2022-08-08T08:19:45.732Z,2.28
2022-08-08T08:22:48.120Z,2.00
2022-08-08T08:25:56.662Z,1.80
2022-08-08T08:29:01.097Z,2.22
2022-08-08T08:32:05.683Z,1.77
2022-08-08T08:35:08.404Z,2.20
2022-08-08T08:41:23.808Z,2.47
2022-08-08T08:44:28.949Z,2.05
2022-08-08T08:47:44.977Z,1.83
2022-08-08T08:50:52.438Z,2.45
2022-08-08T08:53:59.969Z,2.28
2022-08-08T08:57:15.541Z,2.17
2022-08-08T09:00:19.268Z,1.83
2022-08-08T09:03:45.495Z,2.08
2022-08-08T09:06:50.261Z,1.80
2022-08-08T09:09:55.210Z,2.33
2022-08-08T09:13:02.275Z,2.05
2022-08-08T09:16:04.761Z,1.92
2022-08-08T09:19:10.641Z,1.92
2022-08-08T09:22:26.011Z,2.03
2022-08-08T09:25:35.586Z,3.28
2022-08-08T09:28:50.440Z,2.42
2022-08-08T09:32:05.134Z,2.30
2022-08-08T09:35:09.931Z,2.70
2022-08-08T09:39:01.210Z,2.50
2022-08-08T09:42:21.178Z,2.13
2022-08-08T09:46:01.080Z,2.00
2022-08-08T09:48:56.206Z,2.15
2022-08-08T09:52:01.884Z,3.38
2022-08-08T09:55:10.228Z,3.00
2022-08-08T09:58:25.870Z,2.95
2022-08-08T10:01:59.072Z,2.75
2022-08-08T10:04:51.503Z,2.40
2022-08-08T10:07:59.944Z,2.65
2022-08-08T10:11:12.220Z,2.42
2022-08-08T10:14:38.439Z,2.80
2022-08-08T10:18:06.545Z,2.20
2022-08-08T10:21:25.344Z,2.47
2022-08-08T10:24:34.836Z,2.33
2022-08-08T10:27:42.638Z,2.30
2022-08-08T10:31:01.240Z,2.42
2022-08-08T10:34:19.426Z,2.22
2022-08-08T10:37:34.649Z,3.00
2022-08-08T10:40:38.615Z,3.30
2022-08-08T10:43:43.131Z,2.08
2022-08-08T10:46:46.208Z,2.63
2022-08-08T10:50:02.242Z,2.55
2022-08-08T10:53:12.577Z,2.22
2022-08-08T10:56:26.997Z,1.88
2022-08-08T10:59:40.085Z,2.20
2022-08-08T11:02:42.860Z,2.25
2022-08-08T11:05:51.823Z,2.88
2022-08-08T11:09:09.572Z,2.53
2022-08-08T11:12:17.932Z,2.22
2022-08-08T11:15:22.331Z,2.13
2022-08-08T11:18:37.237Z,2.42
2022-08-08T11:21:40.558Z,2.70
2022-08-08T11:24:46.491Z,2.22
2022-08-08T11:27:50.106Z,3.25
2022-08-08T11:30:55.822Z,3.63
2022-08-08T11:34:03.067Z,2.30
2022-08-08T11:37:15.030Z,2.25
2022-08-08T11:40:22.648Z,2.08
2022-08-08T11:43:39.015Z,1.70
2022-08-08T11:46:44.317Z,2.00
2022-08-08T11:49:48.978Z,2.35
2022-08-08T11:52:51.816Z,2.60
2022-08-08T11:55:53.706Z,2.60
2022-08-08T11:59:09.693Z,9.95
2022-08-08T12:02:31.343Z,2.95
2022-08-08T12:05:36.400Z,2.70
2022-08-08T12:08:38.474Z,1.90
2022-08-08T12:11:43.215Z,1.80
2022-08-08T12:14:59.974Z,1.83
2022-08-08T12:18:20.649Z,2.13
2022-08-08T12:21:59.850Z,2.08
2022-08-08T12:24:51.505Z,1.67
2022-08-08T12:28:15.600Z,2.03
2022-08-08T12:31:18.048Z,1.83
2022-08-08T12:35:01.325Z,2.08
2022-08-08T12:38:17.537Z,2.70
2022-08-08T12:41:35.352Z,2.42
2022-08-08T12:44:42.222Z,2.38
2022-08-08T12:48:04.500Z,2.20
2022-08-08T12:51:20.085Z,1.90
2022-08-08T12:54:29.285Z,2.03
2022-08-08T12:57:31.325Z,2.25
2022-08-08T13:00:40.353Z,1.90
2022-08-08T13:03:52.125Z,2.13
2022-08-08T13:06:58.772Z,2.10
2022-08-08T13:10:10.741Z,1.83
2022-08-08T13:13:27.400Z,2.03
2022-08-08T13:16:32.906Z,2.67
2022-08-08T13:19:41.125Z,2.05
2022-08-08T13:23:13.678Z,1.75
2022-08-08T13:26:15.456Z,1.85
2022-08-08T13:29:17.620Z,2.13
2022-08-08T13:32:25.622Z,2.25
2022-08-08T13:35:29.792Z,1.80
2022-08-08T13:38:41.743Z,3.10
2022-08-08T13:41:53.736Z,1.33
2022-08-08T13:45:00.857Z,1.73
2022-08-08T13:48:03.899Z,2.00
2022-08-08T13:51:33.650Z,1.77
2022-08-08T13:54:34.412Z,2.03
2022-08-08T13:58:06.759Z,1.88
2022-08-08T14:00:58.875Z,1.40
2022-08-08T14:04:02.278Z,2.08
2022-08-08T14:07:04.958Z,1.92
2022-08-08T14:10:16.995Z,2.03
2022-08-08T14:13:30.596Z,1.98
2022-08-08T14:16:36.001Z,1.27
2022-08-08T14:19:57.276Z,1.33
2022-08-08T14:23:21.496Z,1.95
2022-08-08T14:26:40.395Z,1.70
2022-08-08T14:29:56.149Z,1.88
2022-08-08T14:32:59.518Z,1.75
2022-08-08T14:39:11.658Z,1.90
2022-08-08T14:42:16.746Z,1.60
2022-08-08T14:45:26.822Z,1.50
2022-08-08T14:48:57.049Z,2.03
2022-08-08T14:52:08.405Z,1.67
2022-08-08T14:55:11.182Z,1.30
2022-08-08T14:58:16.590Z,2.63
2022-08-08T15:01:37.222Z,1.30
2022-08-08T15:04:42.808Z,1.50
2022-08-08T15:07:53.628Z,1.42
2022-08-08T15:11:02.332Z,1.70
2022-08-08T15:14:11.297Z,1.23
2022-08-08T15:17:15.915Z,1.50
2022-08-08T15:23:21.334Z,1.48
2022-08-08T15:26:28.947Z,1.30
2022-08-08T15:29:31.765Z,1.17
2022-08-08T15:38:49.536Z,1.20
2022-08-08T15:41:52.812Z,1.58
2022-08-08T15:44:57.730Z,1.50
2022-08-08T15:48:05.481Z,1.50
2022-08-08T15:51:18.108Z,1.27
2022-08-08T15:57:42.778Z,1.58
2022-08-08T16:00:47.110Z,1.30
2022-08-08T16:03:53.759Z,1.30
2022-08-08T16:06:56.695Z,1.10
2022-08-08T16:13:04.464Z,1.75
2022-08-08T16:13:34.553Z,1.55
2022-08-08T16:16:46.781Z,1.27
2022-08-08T16:20:00.300Z,1.00
2022-08-08T16:23:08.147Z,1.48
2022-08-08T16:26:22.861Z,1.38
2022-08-08T16:30:07.862Z,1.13
2022-08-08T16:33:03.790Z,1.55
2022-08-08T16:36:15.784Z,1.40
2022-08-08T16:39:59.943Z,1.33
2022-08-08T16:42:42.796Z,0.98
2022-08-08T16:46:43.516Z,1.45
2022-08-08T16:49:10.476Z,1.30
2022-08-08T16:55:02.070Z,1.27
2022-08-08T16:55:54.429Z,1.05
2022-08-08T17:05:03.311Z,1.57
2022-08-08T17:08:05.854Z,1.38
2022-08-08T17:11:11.603Z,1.30
2022-08-08T17:14:18.638Z,1.30
2022-08-08T17:17:22.845Z,1.65
2022-08-08T17:20:44.308Z,1.40
2022-08-08T17:24:01.461Z,1.67
2022-08-08T17:27:05.473Z,1.63
2022-08-08T17:30:16.339Z,1.38
2022-08-08T17:34:37.555Z,1.20
2022-08-08T17:37:01.126Z,1.47
2022-08-08T17:40:12.756Z,1.50
2022-08-08T17:43:17.638Z,1.45
2022-08-08T17:46:40.784Z,1.42
2022-08-08T17:56:05.795Z,1.88
2022-08-08T17:59:09.885Z,1.60
2022-08-08T18:02:18.801Z,2.13
2022-08-08T18:05:23.975Z,1.98
2022-08-08T18:11:44.936Z,1.70
2022-08-08T18:14:52.924Z,1.70
2022-08-08T18:18:09.189Z,1.80
2022-08-08T18:21:34.883Z,1.45
2022-08-08T18:24:40.968Z,1.60
2022-08-08T18:27:50.785Z,1.70
2022-08-08T18:30:53.071Z,1.50
2022-08-08T18:34:11.200Z,1.52
2022-08-08T18:37:34.094Z,1.10
2022-08-08T18:40:37.142Z,1.20
2022-08-08T18:43:42.927Z,1.50
2022-08-08T18:46:54.833Z,1.33
2022-08-08T18:50:00.029Z,1.45
2022-08-08T18:53:02.783Z,1.20
2022-08-08T18:56:05.791Z,2.13
2022-08-08T18:59:07.987Z,1.20
2022-08-08T19:02:27.333Z,1.15
2022-08-08T19:05:38.400Z,1.60
2022-08-08T19:08:46.788Z,1.10
2022-08-08T19:11:50.901Z,1.20
2022-08-08T19:14:57.023Z,1.25
2022-08-08T19:18:30.634Z,0.90
2022-08-08T19:21:27.989Z,1.05
2022-08-08T19:24:42.202Z,1.42
2022-08-08T19:28:00.075Z,1.17
2022-08-08T19:31:04.254Z,1.55
2022-08-08T19:34:36.086Z,1.52
2022-08-08T19:37:43.651Z,1.80
2022-08-08T19:40:55.940Z,1.52
2022-08-08T19:44:03.558Z,1.33
2022-08-08T19:47:06.892Z,1.48
2022-08-08T19:56:40.078Z,1.70
2022-08-08T19:59:43.276Z,1.05
2022-08-08T20:02:46.629Z,0.88
2022-08-08T20:06:15.280Z,1.20
2022-08-08T20:09:15.901Z,1.30
2022-08-08T20:12:32.018Z,1.10
2022-08-08T20:16:00.261Z,0.98
2022-08-08T20:18:59.251Z,1.10
2022-08-08T20:22:12.820Z,1.33
2022-08-08T20:25:17.381Z,1.30
2022-08-08T20:28:29.633Z,1.05
2022-08-08T20:31:46.987Z,1.20
2022-08-08T20:34:53.598Z,1.00
2022-08-08T20:37:55.886Z,1.10
2022-08-08T20:40:58.222Z,1.05
2022-08-08T20:47:02.989Z,1.50
2022-08-08T20:50:06.335Z,1.50
2022-08-08T20:53:16.311Z,1.35
2022-08-08T20:56:19.528Z,1.23
2022-08-08T20:59:41.237Z,1.63
2022-08-08T21:02:48.562Z,1.67
2022-08-08T21:05:59.187Z,1.88
2022-08-08T21:09:01.950Z,1.52
2022-08-08T21:12:06.061Z,2.08
2022-08-08T21:15:16.535Z,2.45
2022-08-08T21:18:34.457Z,2.75
2022-08-08T21:21:41.263Z,2.38
2022-08-08T21:24:52.560Z,1.92
2022-08-08T21:28:09.646Z,2.00
2022-08-08T21:31:22.617Z,2.00
2022-08-08T21:34:25.686Z,1.92
2022-08-08T21:37:54.059Z,2.30
2022-08-08T21:40:56.972Z,2.28
2022-08-08T21:43:59.054Z,2.20
2022-08-08T21:48:06.683Z,2.08
2022-08-08T21:50:23.435Z,2.53
2022-08-08T21:54:27.495Z,2.40
2022-08-08T21:56:48.975Z,2.40
2022-08-08T22:00:02.340Z,2.30
2022-08-08T22:03:06.966Z,2.22
2022-08-08T22:06:12.023Z,2.53
2022-08-08T22:09:14.424Z,2.60
2022-08-08T22:12:17.465Z,2.78
2022-08-08T22:15:19.793Z,2.28
2022-08-08T22:18:22.087Z,2.10
2022-08-08T22:21:34.563Z,2.35
2022-08-08T22:24:36.661Z,2.60
2022-08-08T22:28:02.581Z,2.00
2022-08-08T22:31:02.252Z,2.40
2022-08-08T22:34:12.503Z,2.40
2022-08-08T22:37:48.800Z,2.30
2022-08-08T22:40:40.695Z,2.45
2022-08-08T22:44:01.463Z,2.38
2022-08-08T22:47:17.888Z,2.60
2022-08-08T22:50:26.347Z,2.70
2022-08-08T22:54:34.102Z,2.70
2022-08-08T22:56:51.960Z,2.38
2022-08-08T22:59:59.382Z,2.60
2022-08-08T23:03:02.176Z,2.67
2022-08-08T23:06:05.419Z,2.63
2022-08-08T23:09:09.488Z,2.67
2022-08-08T23:12:28.968Z,2.85
2022-08-08T23:16:41.744Z,2.67
2022-08-08T23:18:55.535Z,2.42
2022-08-08T23:21:57.801Z,2.90
2022-08-08T23:25:00.118Z,3.05
2022-08-08T23:28:02.016Z,2.85
2022-08-08T23:31:04.700Z,2.90
2022-08-08T23:34:17.564Z,3.10
2022-08-08T23:37:24.518Z,4.50
2022-08-08T23:40:27.115Z,2.58
2022-08-08T23:43:31.823Z,2.50
2022-08-08T23:49:00.079Z,2.10
2022-08-08T23:50:29.788Z,2.15
2022-08-08T23:54:05.532Z,3.22
2022-08-08T23:56:54.535Z,2.10
